Roy, Utah
Current Conditions -  °F | °C
As of 6:53 AM on Friday 24 Oct 2014 (Local Time) from KOGD Reporting Station
Clear Clear  
Wind Chill: 50°   Ceiling: Unl
Heat Index: 50°   Visibility: 10mi
Dew Point: 32°   Wind: 10mph
Humidity: 50%   Direction: 170°S
Pressure: 30.14"   Gusts: NA
Location:  41.17°N, 112.02°W
Report Text: KOGD 241253Z 17009KT 10SM CLR 10/00 A3014 RMK AO2 SLP176 T01000000
Loading
Personal Weather Stations






























Interactive Weather Map
Tropical Storm Tracking
New forecast layout! Learn more

10-Day Weather Forecast

Advertisements
Track Severe Weather on mobile